Time;durP1;ratioP1;P1;durP2;ratioP2;P2;SDS_P1;SDS_P2;PMS_P1;PMS_P2;Temp;Humidity;BMP_temperature;BMP_pressure;BME280_temperature;BME280_humidity;BME280_pressure;Samples;Min_cycle;Max_cycle;Signal;HPM_P1;HPM_P2
2022/11/02 00:04:41;;;;;;;65.57;33.05;;;10.90;99.90;;;;;;10410606;28;20401;-81
2022/11/02 00:09:42;;;;;;;68.93;34.78;;;10.90;99.90;;;;;;10421041;28;20405;-80
2022/11/02 00:14:42;;;;;;;77.35;39.05;;;10.80;99.90;;;;;;10430716;28;20082;-80
2022/11/02 00:19:43;;;;;;;75.78;37.92;;;10.80;99.90;;;;;;10428202;28;20115;-78
2022/11/02 00:24:44;;;;;;;82.90;39.78;;;10.80;99.90;;;;;;10414115;28;20036;-78
2022/11/02 00:29:44;;;;;;;70.75;37.60;;;10.80;99.90;;;;;;10424706;28;20049;-78
2022/11/02 00:34:45;;;;;;;80.13;38.50;;;10.70;99.90;;;;;;10408871;28;20033;-79
2022/11/02 00:39:45;;;;;;;77.28;40.53;;;10.70;99.90;;;;;;10414681;28;20044;-79
2022/11/02 00:44:46;;;;;;;83.30;43.63;;;10.70;99.90;;;;;;10409591;28;20037;-77
2022/11/02 00:49:46;;;;;;;73.88;37.22;;;10.70;99.90;;;;;;10424074;28;20048;-78
2022/11/02 00:54:47;;;;;;;70.20;35.20;;;10.60;99.90;;;;;;10413399;28;20481;-78
2022/11/02 00:59:47;;;;;;;73.65;37.70;;;10.60;99.90;;;;;;10419537;28;20094;-78
2022/11/02 01:04:48;;;;;;;58.38;30.38;;;10.60;99.90;;;;;;10417140;28;20041;-77
2022/11/02 01:09:48;;;;;;;65.30;32.45;;;10.60;99.90;;;;;;10409566;28;20045;-79
2022/11/02 01:14:49;;;;;;;66.38;33.83;;;10.70;99.90;;;;;;10405883;28;20034;-78
2022/11/02 01:19:50;;;;;;;67.78;34.22;;;10.70;99.90;;;;;;10426600;28;20051;-79
2022/11/02 01:24:50;;;;;;;60.72;32.72;;;10.60;99.90;;;;;;10428712;28;20029;-78
2022/11/02 01:29:51;;;;;;;72.95;33.53;;;10.70;99.90;;;;;;10441453;28;20408;-80
2022/11/02 01:34:51;;;;;;;71.55;34.00;;;10.60;99.90;;;;;;10419998;28;20148;-78
2022/11/02 01:39:52;;;;;;;56.58;30.33;;;10.50;99.90;;;;;;10417699;28;20094;-77
2022/11/02 01:44:53;;;;;;;67.43;33.35;;;10.50;99.90;;;;;;10435399;28;20526;-78
2022/11/02 01:50:05;;;;;;;66.88;32.88;;;10.40;99.90;;;;;;10413601;28;20040;-78
2022/11/02 01:55:12;;;;;;;74.90;34.60;;;10.40;99.90;;;;;;10418101;28;20037;-79
2022/11/02 02:00:14;;;;;;;73.95;37.80;;;10.30;99.90;;;;;;10423651;28;20544;-79
2022/11/02 02:05:16;;;;;;;71.05;34.45;;;10.20;99.90;;;;;;10432341;28;20033;-80
2022/11/02 02:10:17;;;;;;;78.47;37.05;;;10.20;99.90;;;;;;10424640;28;20405;-78
2022/11/02 02:15:20;;;;;;;73.70;36.15;;;10.20;99.90;;;;;;10430272;28;20040;-79
2022/11/02 02:20:59;;;;;;;88.38;41.88;;;10.10;99.90;;;;;;10429434;28;20045;-81
2022/11/02 02:26:22;;;;;;;84.95;39.50;;;10.10;99.90;;;;;;10429751;28;20041;-83
2022/11/02 02:31:52;;;;;;;95.28;42.75;;;10.00;99.90;;;;;;10424901;28;20115;-78
2022/11/02 02:37:24;;;;;;;87.60;39.27;;;9.90;99.90;;;;;;10421017;28;20017;-79
2022/11/02 02:42:31;;;;;;;84.50;41.70;;;9.90;99.90;;;;;;10427783;28;20032;-78
2022/11/02 02:47:33;;;;;;;99.20;44.87;;;9.90;99.90;;;;;;10422015;28;20056;-79
2022/11/02 02:52:36;;;;;;;83.00;40.97;;;9.90;99.90;;;;;;10417117;28;20029;-82
2022/11/02 02:57:37;;;;;;;109.20;46.80;;;9.90;99.90;;;;;;10420026;28;20028;-78
2022/11/02 03:02:39;;;;;;;87.83;42.60;;;9.90;99.90;;;;;;10431955;28;20029;-80
2022/11/02 03:07:46;;;;;;;89.55;41.65;;;9.90;99.90;;;;;;10407096;28;20025;-78
2022/11/02 03:13:17;;;;;;;97.47;47.30;;;9.80;99.90;;;;;;10419696;28;20033;-78
2022/11/02 03:18:32;;;;;;;93.40;43.10;;;9.80;99.90;;;;;;10427689;28;20106;-80
2022/11/02 03:23:42;;;;;;;88.40;43.20;;;9.80;99.90;;;;;;10426459;28;20017;-81
2022/11/02 03:29:02;;;;;;;118.33;51.73;;;9.80;99.90;;;;;;10410602;28;20052;-82
2022/11/02 03:34:18;;;;;;;98.83;45.37;;;9.70;99.90;;;;;;10411492;28;20029;-79
2022/11/02 03:39:34;;;;;;;96.50;44.30;;;9.80;99.90;;;;;;10406714;28;20029;-79
2022/11/02 03:44:37;;;;;;;124.33;55.90;;;9.80;99.90;;;;;;10426811;28;20039;-77
2022/11/02 03:49:41;;;;;;;109.47;46.20;;;9.80;99.90;;;;;;10422814;28;20388;-78
2022/11/02 03:54:48;;;;;;;111.73;48.87;;;9.90;99.90;;;;;;10410342;28;20478;-78
2022/11/02 03:59:49;;;;;;;113.20;53.10;;;9.80;99.90;;;;;;10421003;28;20029;-77
2022/11/02 04:04:51;;;;;;;115.90;55.30;;;9.80;99.90;;;;;;10414646;28;20037;-79
2022/11/02 04:09:51;;;;;;;132.32;66.75;;;9.80;99.90;;;;;;10427201;28;20045;-76
2022/11/02 04:14:52;;;;;;;123.65;67.60;;;9.80;99.90;;;;;;10444432;28;20059;-76
2022/11/02 04:19:53;;;;;;;116.20;49.13;;;9.80;99.90;;;;;;10407407;28;20163;-77
2022/11/02 04:30:14;;;;;;;122.97;50.65;;;9.80;99.90;;;;;;10426164;28;20060;-77
2022/11/02 04:35:15;;;;;;;108.97;49.90;;;9.80;99.90;;;;;;10424613;28;20116;-77
2022/11/02 04:40:16;;;;;;;139.68;71.53;;;9.90;99.90;;;;;;10417368;28;20697;-78
2022/11/02 04:45:17;;;;;;;138.48;74.38;;;10.00;99.90;;;;;;10422094;28;20025;-78
2022/11/02 04:50:18;;;;;;;128.07;60.28;;;9.90;99.90;;;;;;10430589;28;20036;-78
2022/11/02 04:55:18;;;;;;;135.30;68.07;;;10.00;99.90;;;;;;10442104;28;20024;-81
2022/11/02 05:00:20;;;;;;;150.68;73.82;;;10.00;99.90;;;;;;10435625;28;20109;-78
2022/11/02 05:05:20;;;;;;;151.18;72.75;;;9.90;99.90;;;;;;10439425;28;20055;-77
2022/11/02 05:10:21;;;;;;;163.07;72.35;;;9.80;99.90;;;;;;10424620;28;20560;-79
2022/11/02 05:15:21;;;;;;;161.30;70.47;;;9.80;99.90;;;;;;10431039;28;20029;-77
2022/11/02 05:20:22;;;;;;;139.93;55.80;;;9.70;99.90;;;;;;10426646;28;20100;-79
2022/11/02 05:25:22;;;;;;;146.77;63.45;;;9.70;99.90;;;;;;10433594;28;20030;-77
2022/11/02 05:30:23;;;;;;;213.77;80.20;;;9.70;99.90;;;;;;10433185;28;20501;-77
2022/11/02 05:35:24;;;;;;;180.73;73.10;;;9.70;99.90;;;;;;10425302;28;20040;-77
2022/11/02 05:40:27;;;;;;;293.38;87.75;;;9.70;99.90;;;;;;10414049;28;20028;-76
2022/11/02 05:45:28;;;;;;;225.43;73.72;;;9.70;99.90;;;;;;10417640;28;20022;-78
2022/11/02 05:50:28;;;;;;;211.50;75.07;;;9.70;99.90;;;;;;10423613;28;20021;-80
2022/11/02 05:55:29;;;;;;;381.67;111.20;;;9.70;99.90;;;;;;10428888;28;20021;-76
2022/11/02 06:00:30;;;;;;;355.27;95.70;;;9.80;99.90;;;;;;10429362;28;20021;-78
2022/11/02 06:05:30;;;;;;;385.25;102.07;;;9.80;99.90;;;;;;10418520;28;20100;-77
2022/11/02 06:10:31;;;;;;;370.45;91.90;;;9.90;99.90;;;;;;10435122;28;20112;-77
2022/11/02 06:15:32;;;;;;;297.88;74.78;;;9.90;99.90;;;;;;10424456;28;20032;-78
2022/11/02 06:20:33;;;;;;;256.83;72.68;;;9.90;99.90;;;;;;10413476;28;20108;-77
2022/11/02 06:25:33;;;;;;;311.42;74.07;;;9.90;99.90;;;;;;10420173;28;20029;-78
2022/11/02 06:30:34;;;;;;;238.20;58.28;;;10.00;99.90;;;;;;10414663;28;20057;-78
2022/11/02 06:35:34;;;;;;;397.58;73.13;;;10.10;99.90;;;;;;10419015;28;20027;-77
2022/11/02 06:40:35;;;;;;;395.40;75.18;;;10.10;99.90;;;;;;10412188;28;20052;-77
2022/11/02 06:45:35;;;;;;;337.42;73.57;;;10.10;99.90;;;;;;10431635;28;20036;-77
2022/11/02 06:50:36;;;;;;;370.60;90.22;;;10.10;99.90;;;;;;10440361;28;20037;-77
2022/11/02 06:55:36;;;;;;;364.10;82.20;;;10.20;99.90;;;;;;10423295;28;20033;-78
2022/11/02 07:00:37;;;;;;;335.98;91.22;;;10.20;99.90;;;;;;10416868;28;20025;-77
2022/11/02 07:05:37;;;;;;;456.05;94.78;;;10.20;99.90;;;;;;10421087;28;20030;-76
2022/11/02 07:10:39;;;;;;;274.90;74.63;;;10.30;99.90;;;;;;10416771;28;20425;-77
2022/11/02 07:15:40;;;;;;;249.82;61.67;;;10.40;99.90;;;;;;10423684;28;20064;-78
2022/11/02 07:20:40;;;;;;;211.75;64.55;;;10.40;99.90;;;;;;10422182;28;20583;-78
2022/11/02 07:25:41;;;;;;;184.32;55.85;;;10.50;99.90;;;;;;10407777;28;20078;-78
2022/11/02 07:30:41;;;;;;;163.70;52.08;;;10.60;99.90;;;;;;10403798;28;20068;-77
2022/11/02 07:35:42;;;;;;;122.68;44.15;;;10.70;99.90;;;;;;10416289;28;20035;-80
2022/11/02 07:40:43;;;;;;;141.63;47.17;;;10.70;99.90;;;;;;10434527;28;20038;-81
2022/11/02 07:45:43;;;;;;;182.70;52.03;;;10.70;99.90;;;;;;10408701;28;20037;-77
2022/11/02 07:50:44;;;;;;;108.78;45.13;;;10.80;99.90;;;;;;10430162;28;20044;-78
2022/11/02 07:55:44;;;;;;;134.43;45.92;;;11.00;99.90;;;;;;10417098;28;20078;-79
2022/11/02 08:00:45;;;;;;;125.03;45.92;;;11.10;99.90;;;;;;10422803;28;20378;-77
2022/11/02 08:05:45;;;;;;;89.38;39.85;;;11.20;99.90;;;;;;10414621;28;20041;-80
2022/11/02 08:10:48;;;;;;;122.95;46.65;;;11.30;99.90;;;;;;10421754;28;20216;-78
2022/11/02 08:15:51;;;;;;;115.32;45.85;;;11.50;99.90;;;;;;10425927;28;20040;-79
2022/11/02 08:20:54;;;;;;;123.95;51.42;;;11.70;99.90;;;;;;10422806;28;20035;-78
2022/11/02 08:25:57;;;;;;;112.82;47.22;;;11.80;99.90;;;;;;10424448;28;20428;-79
2022/11/02 08:30:58;;;;;;;107.47;46.95;;;11.90;99.90;;;;;;10418425;28;20064;-80
2022/11/02 08:36:03;;;;;;;103.68;45.30;;;12.00;99.90;;;;;;10429779;28;20029;-78
2022/11/02 08:41:04;;;;;;;98.50;42.78;;;12.10;99.90;;;;;;10403764;28;20160;-80
2022/11/02 08:46:05;;;;;;;86.00;41.05;;;12.40;99.90;;;;;;10431507;28;20464;-77
2022/11/02 08:51:07;;;;;;;80.45;39.95;;;12.60;99.90;;;;;;10424998;28;20033;-78
2022/11/02 08:56:08;;;;;;;77.03;38.50;;;13.00;99.90;;;;;;10417577;28;20041;-78
2022/11/02 09:01:08;;;;;;;82.10;38.67;;;13.30;99.90;;;;;;10411464;28;20045;-77
2022/11/02 09:06:09;;;;;;;71.70;37.53;;;13.30;99.90;;;;;;10403160;28;20511;-77
2022/11/02 09:11:09;;;;;;;98.25;49.78;;;13.40;99.90;;;;;;10409282;28;20040;-77
2022/11/02 09:16:10;;;;;;;77.78;39.85;;;13.50;99.90;;;;;;10405584;28;20014;-77
2022/11/02 09:21:10;;;;;;;83.88;44.28;;;13.80;99.90;;;;;;10404659;28;20029;-81
2022/11/02 09:26:11;;;;;;;61.67;30.60;;;14.10;99.90;;;;;;10407239;28;20033;-77
2022/11/02 09:31:11;;;;;;;64.38;29.38;;;14.50;99.90;;;;;;10405089;28;20065;-76
2022/11/02 09:36:12;;;;;;;57.13;28.38;;;14.90;99.90;;;;;;10405236;28;20404;-78
2022/11/02 09:41:28;;;;;;;39.88;19.95;;;15.10;99.90;;;;;;10417995;28;20048;-77
2022/11/02 09:46:39;;;;;;;33.55;19.02;;;15.20;99.90;;;;;;10425235;28;20033;-78
2022/11/02 09:51:48;;;;;;;28.33;15.80;;;15.30;99.90;;;;;;10413935;28;20044;-77
2022/11/02 09:56:50;;;;;;;34.42;18.13;;;15.40;99.90;;;;;;10413857;28;20047;-77
2022/11/02 10:02:22;;;;;;;38.08;18.25;;;15.40;99.90;;;;;;10428954;28;20048;-77
2022/11/02 10:07:43;;;;;;;33.55;17.15;;;15.50;99.90;;;;;;10421854;28;20037;-79
2022/11/02 10:13:18;;;;;;;31.73;16.50;;;15.60;99.90;;;;;;10430348;28;20045;-79
2022/11/02 10:18:24;;;;;;;31.73;16.33;;;15.60;99.90;;;;;;10432040;28;20026;-77
2022/11/02 10:23:35;;;;;;;27.10;14.98;;;15.60;99.90;;;;;;10410011;28;20037;-80
2022/11/02 10:28:41;;;;;;;25.77;14.88;;;15.70;99.90;;;;;;10417806;28;20061;-77
2022/11/02 10:33:41;;;;;;;25.83;14.75;;;15.80;99.90;;;;;;10411475;28;20465;-77
2022/11/02 10:39:15;;;;;;;21.38;12.35;;;15.80;99.90;;;;;;10420379;28;20044;-78
2022/11/02 10:44:37;;;;;;;25.30;14.13;;;15.80;99.90;;;;;;10416129;28;20025;-77
2022/11/02 10:50:24;;;;;;;21.15;11.68;;;15.80;99.90;;;;;;10424813;28;20086;-77
2022/11/02 10:55:38;;;;;;;16.52;9.70;;;16.00;99.90;;;;;;10426374;28;20053;-78
2022/11/02 11:00:40;;;;;;;17.92;8.57;;;16.20;99.90;;;;;;10427110;28;20024;-76
2022/11/02 11:05:55;;;;;;;15.98;8.77;;;16.30;99.90;;;;;;10438485;28;20559;-78
2022/11/02 11:11:27;;;;;;;17.48;10.02;;;16.30;99.90;;;;;;10421728;28;20131;-77
2022/11/02 11:16:46;;;;;;;25.20;13.20;;;16.30;99.90;;;;;;10423549;28;20045;-77
2022/11/02 11:21:48;;;;;;;19.45;10.05;;;16.40;99.90;;;;;;10424497;28;20048;-77
2022/11/02 11:27:03;;;;;;;18.05;9.80;;;16.40;99.90;;;;;;10414707;28;20124;-77
2022/11/02 11:32:11;;;;;;;18.65;10.07;;;16.40;99.90;;;;;;10444945;28;20080;-77
2022/11/02 11:37:15;;;;;;;14.75;7.90;;;16.40;99.90;;;;;;10414594;28;20044;-80
2022/11/02 11:42:22;;;;;;;14.30;6.80;;;16.50;99.90;;;;;;10411044;28;20025;-77
2022/11/02 11:47:35;;;;;;;14.45;7.78;;;16.40;99.10;;;;;;10406978;28;20052;-78
2022/11/02 11:52:37;;;;;;;13.55;6.32;;;16.50;98.40;;;;;;10406570;28;20515;-78
2022/11/02 11:57:37;;;;;;;15.82;7.80;;;16.60;97.30;;;;;;10408720;28;20033;-77
2022/11/02 12:02:38;;;;;;;9.82;6.50;;;16.70;98.00;;;;;;10405487;28;20044;-80
2022/11/02 12:07:42;;;;;;;13.13;7.35;;;16.80;97.10;;;;;;10423296;28;20214;-80
2022/11/02 12:13:08;;;;;;;13.77;7.18;;;16.80;96.90;;;;;;10408979;28;20048;-77
2022/11/02 12:18:34;;;;;;;14.63;8.20;;;16.80;96.50;;;;;;10413690;28;20835;-79
2022/11/02 12:23:44;;;;;;;19.02;10.20;;;16.80;96.70;;;;;;10417180;28;20033;-77
2022/11/02 12:29:19;;;;;;;16.58;8.90;;;16.80;96.70;;;;;;10426439;28;20057;-78
2022/11/02 12:34:25;;;;;;;14.50;7.97;;;16.70;95.60;;;;;;10425000;28;20056;-79
2022/11/02 12:39:53;;;;;;;18.83;9.25;;;16.50;96.20;;;;;;10412491;28;20033;-79
2022/11/02 12:45:23;;;;;;;16.13;7.75;;;16.30;96.40;;;;;;10417253;28;20038;-78
2022/11/02 12:50:48;;;;;;;11.05;6.57;;;16.30;95.70;;;;;;10405117;28;20535;-78
2022/11/02 12:55:54;;;;;;;12.93;6.65;;;16.30;96.70;;;;;;10405775;28;20031;-79
2022/11/02 13:01:06;;;;;;;20.00;10.20;;;16.30;96.10;;;;;;10424843;28;20112;-78
2022/11/02 13:06:10;;;;;;;13.77;7.80;;;16.50;97.00;;;;;;10414270;28;20072;-80
2022/11/02 13:11:22;;;;;;;19.97;10.33;;;16.50;96.50;;;;;;10406045;28;20257;-76
2022/11/02 13:16:42;;;;;;;12.52;7.30;;;16.50;96.60;;;;;;10411715;28;20584;-76
2022/11/02 13:21:53;;;;;;;12.38;6.63;;;16.40;95.30;;;;;;10425776;28;20029;-75
2022/11/02 13:26:54;;;;;;;16.75;8.10;;;16.30;95.60;;;;;;10417359;28;20036;-75
2022/11/02 13:32:34;;;;;;;14.70;8.07;;;16.30;95.80;;;;;;10409563;28;20057;-78
2022/11/02 13:37:39;;;;;;;17.35;9.07;;;16.20;95.50;;;;;;10410818;28;20045;-76
2022/11/02 13:42:40;;;;;;;;;;;16.10;95.70;;;;;;10411789;28;20149;-78
2022/11/02 13:47:40;;;;;;;12.70;7.45;;;16.20;95.80;;;;;;10411324;28;19909;-78
2022/11/02 13:52:47;;;;;;;10.02;5.10;;;16.00;95.50;;;;;;10423102;28;20030;-76
2022/11/02 13:57:52;;;;;;;40.35;19.25;;;15.80;95.60;;;;;;10430678;28;20374;-77
2022/11/02 14:03:01;;;;;;;15.13;8.10;;;15.60;96.30;;;;;;10413332;28;20057;-78
2022/11/02 14:08:06;;;;;;;16.35;8.80;;;15.40;96.60;;;;;;10413411;28;20037;-76
2022/11/02 14:13:16;;;;;;;122.13;54.70;;;15.20;97.20;;;;;;10414158;28;20546;-77
2022/11/02 14:18:29;;;;;;;59.25;26.48;;;15.10;98.00;;;;;;10416243;28;20057;-77
2022/11/02 14:23:35;;;;;;;29.17;14.68;;;15.20;98.40;;;;;;10411341;28;20029;-78
2022/11/02 14:28:42;;;;;;;19.25;10.23;;;15.30;98.50;;;;;;10420425;28;20056;-76
2022/11/02 14:33:43;;;;;;;17.67;8.48;;;15.20;98.70;;;;;;10415137;28;20033;-76
2022/11/02 14:39:25;;;;;;;16.25;9.80;;;15.10;99.00;;;;;;10418661;28;20030;-77
2022/11/02 14:44:44;;;;;;;15.18;9.15;;;14.90;99.40;;;;;;10421657;28;20018;-76
2022/11/02 14:49:55;;;;;;;20.83;9.95;;;14.70;99.60;;;;;;10416963;28;20826;-78
2022/11/02 14:55:01;;;;;;;17.65;9.05;;;14.40;99.90;;;;;;10418548;28;20040;-76
2022/11/02 15:00:18;;;;;;;21.83;10.98;;;14.20;99.90;;;;;;10399584;28;20132;-76
2022/11/02 15:05:39;;;;;;;21.55;12.57;;;14.00;99.90;;;;;;10419768;28;20033;-77
2022/11/02 15:10:44;;;;;;;41.40;25.50;;;13.70;99.90;;;;;;10412550;28;20386;-80
2022/11/02 15:15:45;;;;;;;;;;;13.30;99.90;;;;;;10437201;28;20025;-77
2022/11/02 15:21:05;;;;;;;34.15;19.55;;;12.80;99.90;;;;;;10429340;28;20419;-77
2022/11/02 15:26:15;;;;;;;91.93;53.22;;;12.50;99.90;;;;;;10411325;28;20033;-78
2022/11/02 15:31:19;;;;;;;106.55;53.58;;;12.20;99.90;;;;;;10413809;28;20068;-79
2022/11/02 15:36:36;;;;;;;59.63;32.20;;;12.00;99.90;;;;;;10427308;28;20060;-76
2022/11/02 15:41:44;;;;;;;37.05;20.25;;;11.80;99.90;;;;;;10426142;28;20037;-77
2022/11/02 15:47:28;;;;;;;43.55;23.45;;;11.60;99.90;;;;;;10428737;28;20374;-79
2022/11/02 15:52:50;;;;;;;98.28;52.78;;;11.50;99.90;;;;;;10426015;28;20069;-77
2022/11/02 15:58:18;;;;;;;189.77;99.20;;;11.40;99.90;;;;;;10430920;28;20040;-78
2022/11/02 16:03:19;;;;;;;92.60;43.60;;;11.40;99.90;;;;;;10423037;28;20036;-78
2022/11/02 16:08:22;;;;;;;57.72;28.50;;;11.60;99.90;;;;;;10422434;28;20025;-80
2022/11/02 16:13:23;;;;;;;43.05;23.63;;;11.70;99.90;;;;;;10423995;28;20043;-78
2022/11/02 16:18:38;;;;;;;34.78;21.50;;;11.80;99.90;;;;;;10426298;28;20360;-76
2022/11/02 16:23:44;;;;;;;33.40;17.73;;;11.90;99.90;;;;;;10425650;28;20028;-79
2022/11/02 16:28:51;;;;;;;35.03;20.23;;;11.90;99.90;;;;;;10424272;28;20049;-79
2022/11/02 16:33:54;;;;;;;33.40;19.48;;;11.80;99.90;;;;;;10419145;28;20029;-77
2022/11/02 16:39:01;;;;;;;41.13;24.42;;;11.60;99.90;;;;;;10419102;28;20100;-77
2022/11/02 16:44:08;;;;;;;36.42;21.77;;;11.40;99.90;;;;;;10403508;28;20029;-77
2022/11/02 16:49:20;;;;;;;43.75;23.08;;;11.20;99.90;;;;;;10426161;28;20531;-78
2022/11/02 16:54:38;;;;;;;45.60;26.80;;;10.90;99.90;;;;;;10416897;28;20658;-77
2022/11/02 17:00:06;;;;;;;51.05;29.58;;;10.80;99.90;;;;;;10431729;28;20021;-75
2022/11/02 17:05:24;;;;;;;47.53;26.17;;;10.80;99.90;;;;;;10420646;28;20721;-76
2022/11/02 17:10:26;;;;;;;38.40;20.60;;;10.70;99.90;;;;;;10418982;28;20136;-76
2022/11/02 17:15:30;;;;;;;39.35;24.20;;;10.80;99.90;;;;;;10426958;28;20033;-76
2022/11/02 17:20:31;;;;;;;31.52;18.45;;;10.90;99.90;;;;;;10415309;28;20384;-77
2022/11/02 17:25:37;;;;;;;27.90;14.10;;;10.90;99.90;;;;;;10423052;28;20026;-77
2022/11/02 17:30:38;;;;;;;26.20;12.63;;;11.00;99.90;;;;;;10420180;28;20051;-78
2022/11/02 17:35:44;;;;;;;19.55;10.23;;;11.00;99.90;;;;;;10421960;28;20389;-76
2022/11/02 17:40:50;;;;;;;21.42;11.20;;;11.00;99.90;;;;;;10429374;28;20473;-77
2022/11/02 17:45:58;;;;;;;24.08;12.63;;;11.00;99.90;;;;;;10428788;28;20362;-81
2022/11/02 17:50:59;;;;;;;25.90;12.90;;;11.10;99.90;;;;;;10416122;28;20508;-81
2022/11/02 17:56:00;;;;;;;21.30;11.05;;;11.00;99.90;;;;;;10418771;28;20025;-79
2022/11/02 18:01:02;;;;;;;23.38;11.18;;;11.00;99.90;;;;;;10425265;28;20038;-79
2022/11/02 18:06:02;;;;;;;18.98;11.35;;;11.00;99.90;;;;;;10415367;28;20381;-77
2022/11/02 18:11:03;;;;;;;24.08;12.10;;;11.00;99.90;;;;;;10427521;28;20041;-78
2022/11/02 18:16:04;;;;;;;30.40;15.57;;;11.00;99.90;;;;;;10438165;28;20496;-80
2022/11/02 18:21:05;;;;;;;21.65;11.82;;;11.10;99.90;;;;;;10425148;28;20029;-80
2022/11/02 18:26:08;;;;;;;21.90;13.05;;;11.00;99.90;;;;;;10439321;28;20032;-79
2022/11/02 18:31:09;;;;;;;29.95;13.68;;;11.00;99.90;;;;;;10425157;28;20478;-81
2022/11/02 18:36:10;;;;;;;28.33;14.02;;;11.00;99.90;;;;;;10417922;28;20043;-78
2022/11/02 18:41:29;;;;;;;30.42;16.00;;;10.90;99.90;;;;;;10421677;28;20029;-80
2022/11/02 18:46:31;;;;;;;49.22;26.33;;;10.90;99.90;;;;;;10436668;28;20724;-81
2022/11/02 18:51:32;;;;;;;59.65;31.10;;;10.80;99.90;;;;;;10414764;28;20401;-78
2022/11/02 18:56:32;;;;;;;112.90;56.08;;;10.80;99.90;;;;;;10416538;28;20029;-78
2022/11/02 19:01:33;;;;;;;84.57;43.08;;;10.80;99.90;;;;;;10420118;28;20159;-77
2022/11/02 19:11:59;;;;;;;86.68;47.25;;;10.80;99.90;;;;;;10417405;28;20034;-80
2022/11/02 19:17:00;;;;;;;75.47;43.55;;;10.90;99.90;;;;;;10418318;28;20034;-79
2022/11/02 19:22:01;;;;;;;64.18;30.65;;;10.90;99.90;;;;;;10417385;28;20125;-81
2022/11/02 19:27:02;;;;;;;88.18;41.22;;;10.90;99.90;;;;;;10412284;22;20180;-77
2022/11/02 19:32:03;;;;;;;52.03;27.52;;;10.90;99.90;;;;;;10358071;28;20616;-78
2022/11/02 19:37:05;;;;;;;49.17;25.42;;;10.90;99.90;;;;;;10360902;28;20447;-77
2022/11/02 19:42:06;;;;;;;44.38;22.10;;;10.80;99.90;;;;;;10363124;28;20044;-80
2022/11/02 19:47:06;;;;;;;40.63;21.27;;;10.80;99.90;;;;;;10353205;28;20350;-77
2022/11/02 19:52:07;;;;;;;54.17;27.92;;;10.80;99.90;;;;;;10363881;28;20042;-77
2022/11/02 19:57:07;;;;;;;59.90;30.30;;;10.80;99.90;;;;;;10361961;28;20033;-80
2022/11/02 20:02:09;;;;;;;56.80;28.58;;;10.90;99.90;;;;;;10344353;28;20034;-80
2022/11/02 20:07:10;;;;;;;38.38;19.33;;;10.90;99.90;;;;;;10359993;28;20042;-78
2022/11/02 20:12:11;;;;;;;54.10;25.02;;;11.00;99.90;;;;;;10362595;28;20552;-75
2022/11/02 20:17:11;;;;;;;57.30;30.95;;;11.10;99.90;;;;;;10362539;28;20047;-77
2022/11/02 20:22:12;;;;;;;63.65;31.50;;;11.10;99.90;;;;;;10362444;28;20030;-79
2022/11/02 20:27:12;;;;;;;55.45;28.63;;;11.00;99.90;;;;;;10362967;28;20061;-78
2022/11/02 20:32:14;;;;;;;46.85;25.38;;;11.00;99.90;;;;;;10363495;28;20378;-77
2022/11/02 20:37:16;;;;;;;55.08;26.80;;;10.80;99.90;;;;;;10361465;28;20045;-77
2022/11/02 20:42:16;;;;;;;51.53;26.55;;;10.50;99.90;;;;;;10363050;28;20460;-81
2022/11/02 20:47:17;;;;;;;55.75;28.83;;;10.10;99.90;;;;;;10358249;28;20492;-77
2022/11/02 20:52:20;;;;;;;73.63;37.47;;;9.70;99.90;;;;;;10361702;28;20510;-77
2022/11/02 20:57:21;;;;;;;69.27;35.17;;;9.40;99.90;;;;;;10363539;28;20042;-77
2022/11/02 21:08:21;;;;;;;82.15;40.72;;;9.00;99.90;;;;;;10429321;28;20400;-78
2022/11/02 21:18:40;;;;;;;99.30;49.67;;;8.60;99.90;;;;;;10439730;28;20040;-77
2022/11/02 21:23:41;;;;;;;128.13;60.80;;;8.50;99.90;;;;;;10439603;28;20033;-76
2022/11/02 21:29:02;;;;;;;104.37;45.60;;;8.30;99.90;;;;;;10440166;28;20115;-77
2022/11/02 21:34:03;;;;;;;63.73;30.47;;;8.20;99.90;;;;;;10404330;28;20516;-76
2022/11/02 21:39:03;;;;;;;57.07;28.60;;;8.10;99.90;;;;;;10403964;28;20072;-76
2022/11/02 21:44:05;;;;;;;58.47;30.77;;;8.00;99.90;;;;;;10404328;28;20763;-78
2022/11/02 21:49:06;;;;;;;64.03;33.27;;;7.90;99.90;;;;;;10364267;28;20045;-77
2022/11/02 21:54:07;;;;;;;57.23;28.30;;;7.70;99.90;;;;;;10361846;28;20053;-81
2022/11/02 21:59:08;;;;;;;48.93;23.43;;;7.70;99.90;;;;;;10362574;28;20050;-77
2022/11/02 22:04:11;;;;;;;77.73;36.70;;;7.60;99.90;;;;;;10394117;28;20049;-77
2022/11/02 22:09:13;;;;;;;105.33;48.83;;;7.60;99.90;;;;;;10402527;28;20036;-78
2022/11/02 22:14:13;;;;;;;106.93;50.53;;;7.60;99.90;;;;;;10399539;28;20042;-78
2022/11/02 22:19:14;;;;;;;135.27;70.97;;;7.50;99.90;;;;;;10398643;28;20044;-76
2022/11/02 22:24:14;;;;;;;128.77;62.90;;;7.50;99.90;;;;;;10402163;28;20029;-78
2022/11/02 22:29:15;;;;;;;120.27;55.37;;;7.50;99.90;;;;;;10405479;28;20041;-77
2022/11/02 22:34:16;;;;;;;103.70;51.93;;;7.40;99.90;;;;;;10408667;28;20033;-77
2022/11/02 22:39:16;;;;;;;76.17;38.43;;;7.30;99.90;;;;;;10407818;28;20079;-77
2022/11/02 22:44:21;;;;;;;71.80;37.77;;;7.30;99.90;;;;;;10407376;28;20037;-78
2022/11/02 22:49:21;;;;;;;91.63;42.17;;;7.20;99.90;;;;;;10404262;28;20041;-79
2022/11/02 22:54:22;;;;;;;99.77;46.63;;;7.10;99.90;;;;;;10406537;28;20401;-77
2022/11/02 22:59:23;;;;;;;89.83;43.00;;;7.20;99.90;;;;;;10395196;28;20112;-78
2022/11/02 23:04:23;;;;;;;94.23;43.20;;;7.10;99.90;;;;;;10390878;28;20045;-80
2022/11/02 23:09:24;;;;;;;77.23;38.63;;;7.10;99.90;;;;;;10406853;28;20033;-77
2022/11/02 23:14:24;;;;;;;91.73;47.40;;;7.10;99.90;;;;;;10403366;28;20041;-77
2022/11/02 23:19:25;;;;;;;77.53;40.47;;;7.00;99.90;;;;;;10395612;28;20033;-77
2022/11/02 23:40:23;;;;;;;77.33;37.13;;;6.80;99.90;;;;;;10400617;28;20084;-77
2022/11/02 23:45:24;;;;;;;72.70;35.00;;;6.70;99.90;;;;;;10396754;28;20120;-77
